Kars, Turkey
Current Conditions -  °F | °C
As of 12:50 PM on Thursday 23 Oct 2014 (Local Time) from LTCF Reporting Station
Broken Clouds Broken Clouds  
Wind Chill: 57°   Ceiling: 3500
Heat Index: 57°   Visibility: 6mi
Dew Point: 36°   Wind: 7mph
Humidity: 44%   Direction: 270°W
Pressure: 30.18"   Gusts: NA
Location:  40.59°N, 43.07°E
Report Text: LTCF 230950Z 27006KT 220V290 9999 BKN035 14/02 Q1022
Loading
Personal Weather Stations






























Interactive Weather Map
Tropical Storm Tracking
New forecast layout! Learn more

10-Day Weather Forecast

Advertisements
Track Severe Weather on mobile